11:42
Airports
History
Links
Donate
Help keep this website running!
PayPal
Bitcoin
This page is community maintained. The information is intended for PC simulator navigation or reference.
Always use approved charts for navigation.
LOKN
Noetsch im Gailtal
Noetsch im Gailtal (LOKN)
Nötsch im Gailtal, Carinthia, Austria (9611)
(C)
Lat/Lng:46° 34' 55.2" N / 13° 37' 48" E
46.582 / 13.63
Elevation:1800'ft / 549mMSL
ID / ICAO:LOKN
Runways:1
Longest:09-27
Grass 708m / 2,323ft
Controlled:Yes
Nearby Weather11:20 GMT 2018-02-20
Nearby weather at LOWK, Klagenfurt Woerthersee located 33.8 nautical miles from LOKN
Altimeter: 29.85
Visibility: 5.0 statute miles
Wind: 2 knots (from 340°)
Temp: 0°c / 32°f
Humidity: %

METAR: LOWK 201120Z 34002KT 8000 SCT013 SCT045 BKN070 00/M03 Q1011 R10L/29//95 NOSIG

(Powered by phpweather)
Nearby VORs <50NM
Nearby NDBs
Runway 09 / 27
Dimensions:708.1 x 29.9m 2323' x 98'ft
Surface:Grass
Runway 09 [A]Runway 27 [B]
Heading:090°TH 270°TH
Lat:
Lng:
46° 34' 55.2"N
13° 37' 31.28"E
46° 34' 55.2"N
13° 38' 4.72"E
User Notes and Comments
46° 34' 55.2" N / 13° 37' 48" E
Distance To
Airport ID:
Nearby Airports
(C) Feldkirchen Oss See 22.9 NM
LOKF ENE 67°
(C) Ferlach Glainach 33.6 NM
LOKG E 95°
(C) Klagenfurt Woerthersee 33.8 NM
LOWK ( WX ) E 82°
(C) Mauterndorf 38.2 NM
LOSM N
(C) Lienz Nikolsdorf 38.2 NM
LOKL WNW 292°
4 Udine Campoformido 43.5 NM
LIPD SSW 209°
(C) Mayerhofen 44.5 NM
LOKM NE 52°
VFR Chart
Flight Planning at SkyVector.com